createdAt,value
2023-04-06T00:02:32.002Z,4.97
2023-04-06T00:05:18.508Z,4.89
2023-04-06T00:08:06.853Z,4.85
2023-04-06T00:10:52.914Z,4.86
2023-04-06T00:13:39.229Z,5.13
2023-04-06T00:16:26.557Z,5.08
2023-04-06T00:19:14.350Z,4.88
2023-04-06T00:22:00.816Z,4.73
2023-04-06T00:24:48.409Z,4.69
2023-04-06T00:27:34.883Z,4.73
2023-04-06T00:30:21.561Z,4.73
2023-04-06T00:33:08.030Z,4.71
2023-04-06T00:35:54.322Z,4.64
2023-04-06T00:38:41.355Z,4.66
2023-04-06T00:41:28.990Z,4.61
2023-04-06T00:44:15.712Z,4.60
2023-04-06T00:47:02.784Z,4.67
2023-04-06T00:49:49.080Z,4.60
2023-04-06T00:52:36.541Z,4.80
2023-04-06T00:55:23.093Z,4.76
2023-04-06T00:58:10.941Z,4.85
2023-04-06T01:01:07.267Z,5.17
2023-04-06T01:03:55.261Z,5.15
2023-04-06T01:06:42.169Z,5.30
2023-04-06T01:09:29.494Z,5.18
2023-04-06T01:12:16.223Z,5.26
2023-04-06T01:15:03.785Z,5.38
2023-04-06T01:17:52.610Z,5.35
2023-04-06T01:20:39.714Z,5.29
2023-04-06T01:23:28.662Z,5.30
2023-04-06T01:26:15.486Z,5.36
2023-04-06T01:29:02.825Z,5.54
2023-04-06T01:31:49.811Z,5.49
2023-04-06T01:34:36.499Z,5.60
2023-04-06T01:37:24.890Z,5.67
2023-04-06T01:40:16.252Z,5.84
2023-04-06T01:43:08.989Z,5.91
2023-04-06T01:46:05.350Z,5.74
2023-04-06T01:48:57.294Z,5.86
2023-04-06T01:51:57.708Z,5.84
2023-04-06T01:54:44.309Z,5.61
2023-04-06T01:58:01.048Z,5.63
2023-04-06T02:00:54.165Z,5.74
2023-04-06T02:03:40.766Z,5.79
2023-04-06T02:06:31.155Z,5.82
2023-04-06T02:09:18.207Z,5.78
2023-04-06T02:12:04.962Z,5.82
2023-04-06T02:14:54.206Z,5.78
2023-04-06T02:17:40.597Z,5.84
2023-04-06T02:20:27.108Z,5.77
2023-04-06T02:23:13.758Z,5.83
2023-04-06T02:26:00.310Z,5.74
2023-04-06T02:28:46.868Z,5.63
2023-04-06T02:31:34.670Z,5.62
2023-04-06T02:34:22.261Z,5.56
2023-04-06T02:37:11.261Z,5.64
2023-04-06T02:39:57.886Z,5.87
2023-04-06T02:42:44.643Z,5.62
2023-04-06T02:45:31.829Z,5.85
2023-04-06T02:48:21.131Z,5.78
2023-04-06T02:51:07.363Z,5.80
2023-04-06T02:53:54.375Z,5.94
2023-04-06T02:56:40.986Z,5.69
2023-04-06T02:59:27.609Z,5.48
2023-04-06T03:02:26.012Z,5.61
2023-04-06T03:05:17.889Z,5.60
2023-04-06T03:08:06.478Z,5.67
2023-04-06T03:11:00.514Z,5.35
2023-04-06T03:13:55.231Z,5.37
2023-04-06T03:16:41.585Z,5.30
2023-04-06T03:19:28.640Z,5.25
2023-04-06T03:22:20.133Z,5.21
2023-04-06T03:25:08.492Z,5.04
2023-04-06T03:27:54.964Z,5.15
2023-04-06T03:30:41.575Z,5.06
2023-04-06T03:33:28.944Z,5.10
2023-04-06T03:36:15.565Z,5.10
2023-04-06T03:39:05.130Z,5.11
2023-04-06T03:41:54.788Z,5.06
2023-04-06T03:44:55.323Z,5.09
2023-04-06T03:47:42.409Z,5.14
2023-04-06T03:50:29.060Z,5.09
2023-04-06T03:53:15.488Z,5.05
2023-04-06T03:56:04.847Z,4.98
2023-04-06T03:58:51.639Z,5.01
2023-04-06T04:01:41.201Z,4.98
2023-04-06T04:04:27.513Z,5.01
2023-04-06T04:07:14.239Z,5.01
2023-04-06T04:10:00.749Z,4.91
2023-04-06T04:12:49.292Z,5.00
2023-04-06T04:15:35.993Z,5.02
2023-04-06T04:18:22.416Z,5.07
2023-04-06T04:21:09.322Z,5.05
2023-04-06T04:23:55.994Z,5.01
2023-04-06T04:26:42.462Z,5.15
2023-04-06T04:29:30.391Z,5.32
2023-04-06T04:32:21.613Z,5.76
2023-04-06T04:35:11.079Z,6.09
2023-04-06T04:38:01.169Z,6.39
2023-04-06T04:40:47.668Z,6.26
2023-04-06T04:43:34.341Z,5.95
2023-04-06T04:46:23.870Z,6.38
2023-04-06T04:49:11.988Z,6.24
2023-04-06T04:52:00.560Z,6.11
2023-04-06T04:54:58.336Z,5.89
2023-04-06T04:57:48.338Z,6.42
2023-04-06T05:00:36.093Z,7.27
2023-04-06T05:03:26.639Z,6.92
2023-04-06T05:06:21.229Z,7.09
2023-04-06T05:09:08.488Z,7.34
2023-04-06T05:11:55.791Z,7.43
2023-04-06T05:14:42.725Z,6.61
2023-04-06T05:17:34.207Z,6.85
2023-04-06T05:20:22.282Z,6.47
2023-04-06T05:23:11.175Z,6.85
2023-04-06T05:25:58.282Z,6.52
2023-04-06T05:28:45.380Z,6.32
2023-04-06T05:31:32.196Z,6.14
2023-04-06T05:34:18.877Z,6.41
2023-04-06T05:37:07.551Z,6.64
2023-04-06T05:39:53.684Z,6.54
2023-04-06T05:42:46.389Z,6.60
2023-04-06T05:45:33.098Z,6.69
2023-04-06T05:48:26.029Z,6.35
2023-04-06T05:51:13.428Z,6.31
2023-04-06T05:54:06.894Z,6.43
2023-04-06T05:56:54.039Z,6.57
2023-04-06T05:59:40.734Z,6.94
2023-04-06T06:02:28.087Z,6.42
2023-04-06T06:05:18.941Z,6.72
2023-04-06T06:08:09.678Z,6.92
2023-04-06T06:10:58.210Z,6.95
2023-04-06T06:13:45.236Z,7.17
2023-04-06T06:16:32.779Z,7.31
2023-04-06T06:19:20.218Z,6.97
2023-04-06T06:22:07.984Z,7.15
2023-04-06T06:25:00.479Z,7.45
2023-04-06T06:27:50.227Z,7.70
2023-04-06T06:30:40.739Z,7.80
2023-04-06T06:33:27.756Z,7.65
2023-04-06T06:36:16.754Z,7.69
2023-04-06T06:39:05.533Z,7.80
2023-04-06T06:41:54.179Z,7.54
2023-04-06T06:44:48.156Z,7.24
2023-04-06T06:47:34.222Z,7.65
2023-04-06T06:50:20.892Z,7.53
2023-04-06T06:53:08.858Z,7.52
2023-04-06T06:55:55.997Z,7.69
2023-04-06T06:58:44.266Z,7.86
2023-04-06T07:01:35.148Z,7.82
2023-04-06T07:04:22.161Z,8.11
2023-04-06T07:07:09.938Z,7.63
2023-04-06T07:09:56.686Z,7.94
2023-04-06T07:12:43.293Z,8.42
2023-04-06T07:15:31.026Z,8.38
2023-04-06T07:18:20.724Z,8.14
2023-04-06T07:21:07.577Z,8.21
2023-04-06T07:23:55.286Z,8.48
2023-04-06T07:26:41.697Z,8.26
2023-04-06T07:29:29.049Z,8.39
2023-04-06T07:32:15.873Z,8.31
2023-04-06T07:35:04.453Z,8.59
2023-04-06T07:37:51.378Z,8.55
2023-04-06T07:41:07.343Z,8.32
2023-04-06T07:43:54.981Z,9.04
2023-04-06T07:46:41.707Z,8.75
2023-04-06T07:49:28.861Z,9.02
2023-04-06T07:52:17.393Z,9.14
2023-04-06T07:55:05.492Z,9.04
2023-04-06T07:57:51.971Z,9.73
2023-04-06T08:00:38.836Z,9.63
2023-04-06T08:03:55.606Z,10.09
2023-04-06T08:06:42.429Z,9.48
2023-04-06T08:09:31.107Z,9.72
2023-04-06T08:12:17.563Z,9.99
2023-04-06T08:15:04.908Z,9.82
2023-04-06T08:17:51.171Z,9.86
2023-04-06T08:20:38.381Z,10.01
2023-04-06T08:23:24.703Z,10.20
2023-04-06T08:26:12.901Z,10.29
2023-04-06T08:28:59.176Z,10.04
2023-04-06T08:31:45.876Z,9.86
2023-04-06T08:34:34.058Z,10.06
2023-04-06T08:37:20.473Z,9.80
2023-04-06T08:40:08.106Z,9.87
2023-04-06T08:42:57.902Z,10.19
2023-04-06T08:45:45.300Z,9.79
2023-04-06T08:48:32.150Z,10.34
2023-04-06T08:51:19.442Z,10.38
2023-04-06T08:54:07.468Z,10.47
2023-04-06T08:56:57.487Z,9.73
2023-04-06T08:59:46.295Z,9.80
2023-04-06T09:02:33.950Z,9.63
2023-04-06T09:05:21.181Z,9.51
2023-04-06T09:08:08.394Z,9.49
2023-04-06T09:10:55.176Z,9.83
2023-04-06T09:13:49.272Z,9.76
2023-04-06T09:16:42.915Z,10.16
2023-04-06T09:19:29.412Z,9.71
2023-04-06T09:22:15.824Z,9.97
2023-04-06T09:25:02.263Z,9.95
2023-04-06T09:27:50.381Z,9.65
2023-04-06T09:30:37.161Z,9.42
2023-04-06T09:34:10.522Z,10.11
2023-04-06T09:37:01.111Z,9.98
2023-04-06T09:39:47.962Z,10.92
2023-04-06T09:46:19.901Z,10.92
2023-04-06T09:49:07.536Z,10.91
2023-04-06T09:56:19.696Z,10.75
2023-04-06T09:59:11.769Z,10.27
2023-04-06T10:02:02.490Z,10.29
2023-04-06T10:04:55.364Z,9.98
2023-04-06T10:07:58.983Z,9.79
2023-04-06T10:10:49.375Z,9.88
2023-04-06T10:13:36.105Z,10.11
2023-04-06T10:16:23.838Z,9.67
2023-04-06T10:19:18.322Z,9.67
2023-04-06T10:22:07.350Z,9.61
2023-04-06T10:24:56.662Z,9.44
2023-04-06T10:27:43.189Z,9.33
2023-04-06T10:30:30.844Z,9.19
2023-04-06T10:33:17.859Z,9.09
2023-04-06T10:36:12.391Z,8.91
2023-04-06T10:39:01.494Z,9.14
2023-04-06T10:41:52.491Z,9.38
2023-04-06T10:44:45.493Z,9.45
2023-04-06T10:47:43.088Z,9.35
2023-04-06T10:50:56.515Z,9.20
2023-04-06T10:53:44.714Z,9.04
2023-04-06T10:56:34.219Z,9.64
2023-04-06T10:59:23.752Z,9.25
2023-04-06T11:02:10.467Z,9.18
2023-04-06T11:04:58.237Z,9.91
2023-04-06T11:07:46.707Z,9.80
2023-04-06T11:10:33.167Z,9.29
2023-04-06T11:13:19.814Z,9.98
2023-04-06T11:16:08.391Z,10.05
2023-04-06T11:18:56.512Z,10.23
2023-04-06T11:21:46.351Z,10.09
2023-04-06T11:24:32.572Z,9.71
2023-04-06T11:27:20.159Z,9.38
2023-04-06T11:30:10.503Z,9.77
2023-04-06T11:33:03.596Z,10.16
2023-04-06T11:35:50.504Z,9.61
2023-04-06T11:38:41.202Z,9.57
2023-04-06T11:41:32.380Z,9.26
2023-04-06T11:44:30.718Z,9.41
2023-04-06T11:47:17.940Z,9.74
2023-04-06T11:50:13.328Z,10.08
2023-04-06T11:53:03.439Z,9.67
2023-04-06T11:55:49.572Z,10.11
2023-04-06T11:58:38.121Z,9.85
2023-04-06T12:01:28.616Z,9.89
2023-04-06T12:04:15.809Z,9.88
2023-04-06T12:07:04.426Z,9.96
2023-04-06T12:09:51.209Z,10.30
2023-04-06T12:12:37.385Z,10.15
2023-04-06T12:15:23.753Z,10.13
2023-04-06T12:18:10.259Z,10.35
2023-04-06T12:20:57.907Z,10.39
2023-04-06T12:23:45.762Z,10.26
2023-04-06T12:26:33.843Z,10.02
2023-04-06T12:29:20.362Z,9.82
2023-04-06T12:32:07.607Z,9.71
2023-04-06T12:34:54.537Z,9.40
2023-04-06T12:37:41.242Z,9.97
2023-04-06T12:40:29.105Z,9.54
2023-04-06T12:43:15.701Z,9.54
2023-04-06T12:46:02.541Z,9.71
2023-04-06T12:48:48.957Z,9.42
2023-04-06T12:51:35.718Z,9.54
2023-04-06T12:54:22.939Z,9.29
2023-04-06T12:57:11.022Z,9.42
2023-04-06T12:59:57.382Z,9.34
2023-04-06T13:02:47.531Z,9.40
2023-04-06T13:05:34.106Z,9.30
2023-04-06T13:08:21.611Z,9.24
2023-04-06T13:11:10.247Z,8.97
2023-04-06T13:13:59.308Z,9.15
2023-04-06T13:16:46.005Z,9.15
2023-04-06T13:19:32.982Z,8.94
2023-04-06T13:22:19.653Z,8.84
2023-04-06T13:25:08.278Z,9.12
2023-04-06T13:27:56.239Z,9.08
2023-04-06T13:30:43.920Z,9.10
2023-04-06T13:33:30.949Z,8.88
2023-04-06T13:36:18.317Z,9.37
2023-04-06T13:39:05.465Z,9.34
2023-04-06T13:41:57.614Z,9.20
2023-04-06T13:44:44.609Z,9.29
2023-04-06T13:47:33.814Z,9.41
2023-04-06T13:50:21.216Z,9.23
2023-04-06T13:53:07.674Z,9.47
2023-04-06T13:55:55.430Z,9.05
2023-04-06T13:58:42.152Z,9.44
2023-04-06T14:01:29.844Z,9.35
2023-04-06T14:04:17.762Z,9.17
2023-04-06T14:07:08.854Z,9.06
2023-04-06T14:09:55.824Z,9.03
2023-04-06T14:12:49.522Z,8.91
2023-04-06T14:15:36.393Z,8.88
2023-04-06T14:18:23.717Z,8.97
2023-04-06T14:21:11.320Z,8.95
2023-04-06T14:23:59.576Z,9.00
2023-04-06T14:26:46.943Z,9.04
2023-04-06T14:29:34.379Z,9.29
2023-04-06T14:32:23.177Z,9.12
2023-04-06T14:35:11.824Z,9.20
2023-04-06T14:38:03.480Z,9.13
2023-04-06T14:40:51.088Z,9.27
2023-04-06T14:43:39.893Z,9.51
2023-04-06T14:46:26.587Z,9.19
2023-04-06T14:49:15.609Z,9.15
2023-04-06T14:52:05.285Z,9.00
2023-04-06T14:54:53.510Z,8.71
2023-04-06T14:57:40.266Z,8.96
2023-04-06T15:00:28.005Z,9.17
2023-04-06T15:03:17.058Z,8.82
2023-04-06T15:06:03.988Z,8.94
2023-04-06T15:08:51.181Z,8.69
2023-04-06T15:11:43.968Z,8.88
2023-04-06T15:14:31.530Z,8.69
2023-04-06T15:20:52.778Z,8.70
2023-04-06T15:23:39.870Z,8.45
2023-04-06T15:26:27.298Z,8.70
2023-04-06T15:29:15.341Z,8.54
2023-04-06T15:32:02.765Z,8.64
2023-04-06T15:34:49.529Z,8.95
2023-04-06T15:37:37.542Z,8.76
2023-04-06T15:40:26.115Z,9.01
2023-04-06T15:43:12.564Z,9.10
2023-04-06T15:46:04.672Z,9.31
2023-04-06T15:48:52.479Z,9.38
2023-04-06T15:51:40.305Z,9.44
2023-04-06T15:54:26.591Z,9.08
2023-04-06T15:57:13.421Z,9.19
2023-04-06T16:00:00.108Z,8.82
2023-04-06T16:02:51.191Z,9.11
2023-04-06T16:05:48.881Z,9.23
2023-04-06T16:08:41.387Z,9.00
2023-04-06T16:11:27.887Z,8.94
2023-04-06T16:14:15.684Z,8.90
2023-04-06T16:17:02.422Z,8.90
2023-04-06T16:19:51.381Z,9.10
2023-04-06T16:22:38.151Z,9.24
2023-04-06T16:25:25.865Z,8.81
2023-04-06T16:28:13.370Z,9.05
2023-04-06T16:30:59.835Z,9.05
2023-04-06T16:33:46.829Z,9.12
2023-04-06T16:36:35.687Z,9.22
2023-04-06T16:39:23.091Z,9.39
2023-04-06T16:42:10.153Z,9.28
2023-04-06T16:44:59.065Z,9.72
2023-04-06T16:47:45.355Z,9.32
2023-04-06T16:50:35.811Z,9.31
2023-04-06T16:53:27.838Z,9.14
2023-04-06T16:56:14.973Z,9.12
2023-04-06T16:59:02.411Z,9.05
2023-04-06T17:01:52.637Z,9.41
2023-04-06T17:04:44.420Z,9.49
2023-04-06T17:07:33.344Z,9.32
2023-04-06T17:10:28.903Z,9.21
2023-04-06T17:13:23.913Z,9.24
2023-04-06T17:16:11.345Z,9.03
2023-04-06T17:18:58.290Z,9.31
2023-04-06T17:21:47.907Z,9.43
2023-04-06T17:24:36.098Z,9.42
2023-04-06T17:27:26.530Z,9.48
2023-04-06T17:30:16.242Z,9.43
2023-04-06T17:33:03.910Z,9.71
2023-04-06T17:35:52.070Z,9.53
2023-04-06T17:38:43.188Z,9.47
2023-04-06T17:41:32.596Z,9.20
2023-04-06T17:48:48.850Z,9.42
2023-04-06T17:52:27.289Z,9.46
2023-04-06T17:55:25.527Z,9.21
2023-04-06T17:58:12.203Z,9.43
2023-04-06T18:00:59.180Z,9.45
2023-04-06T18:03:50.254Z,9.61
2023-04-06T18:06:43.365Z,9.40
2023-04-06T18:09:39.710Z,9.48
2023-04-06T18:12:35.245Z,9.70
2023-04-06T18:15:21.920Z,9.99
2023-04-06T18:18:08.798Z,9.90
2023-04-06T18:20:59.195Z,9.65
2023-04-06T18:23:46.033Z,9.89
2023-04-06T18:26:36.625Z,9.91
2023-04-06T18:29:25.268Z,10.20
2023-04-06T18:32:11.976Z,10.37
2023-04-06T18:34:58.987Z,10.08
2023-04-06T18:37:47.039Z,10.28
2023-04-06T18:40:39.121Z,10.08
2023-04-06T18:43:48.041Z,9.76
2023-04-06T18:46:36.320Z,9.91
2023-04-06T18:49:23.217Z,10.30
2023-04-06T18:52:15.960Z,10.42
2023-04-06T18:55:09.016Z,10.56
2023-04-06T18:57:57.536Z,10.71
2023-04-06T19:00:58.002Z,10.86
2023-04-06T19:03:52.639Z,11.07
2023-04-06T19:06:41.787Z,10.94
2023-04-06T19:13:34.520Z,10.36
2023-04-06T19:16:29.204Z,10.24
2023-04-06T19:19:18.047Z,10.75
2023-04-06T19:22:07.991Z,10.35
2023-04-06T19:24:56.210Z,10.39
2023-04-06T19:27:46.757Z,10.78
2023-04-06T19:30:48.195Z,10.87
2023-04-06T19:34:18.797Z,10.90
2023-04-06T19:37:10.137Z,10.91
2023-04-06T19:40:13.552Z,11.21
2023-04-06T19:43:01.670Z,11.03
2023-04-06T19:45:51.791Z,11.29
2023-04-06T19:48:40.396Z,10.92
2023-04-06T19:51:34.421Z,10.83
2023-04-06T19:54:31.628Z,10.85
2023-04-06T19:57:29.846Z,10.70
2023-04-06T20:00:19.270Z,10.42
2023-04-06T20:03:07.462Z,10.33
2023-04-06T20:05:56.953Z,10.30
2023-04-06T20:08:44.719Z,10.39
2023-04-06T20:11:31.933Z,10.55
2023-04-06T20:14:19.187Z,10.47
2023-04-06T20:17:05.731Z,10.09
2023-04-06T20:19:54.101Z,10.17
2023-04-06T20:22:46.270Z,10.00
2023-04-06T20:25:34.098Z,10.30
2023-04-06T20:28:23.198Z,10.64
2023-04-06T20:31:16.675Z,10.77
2023-04-06T20:34:05.406Z,11.02
2023-04-06T20:36:53.630Z,10.92
2023-04-06T20:39:40.436Z,10.81
2023-04-06T20:42:26.636Z,10.76
2023-04-06T20:45:14.093Z,10.62
2023-04-06T20:48:07.931Z,10.83
2023-04-06T20:50:55.439Z,10.69
2023-04-06T20:53:43.261Z,10.63
2023-04-06T20:56:29.692Z,10.65
2023-04-06T20:59:16.451Z,10.65
2023-04-06T21:02:02.977Z,10.74
2023-04-06T21:04:49.446Z,10.88
2023-04-06T21:07:35.708Z,10.64
2023-04-06T21:10:24.072Z,10.78
2023-04-06T21:13:10.425Z,10.67
2023-04-06T21:15:57.136Z,10.60
2023-04-06T21:18:43.685Z,10.38
2023-04-06T21:21:29.915Z,10.48
2023-04-06T21:24:16.274Z,10.57
2023-04-06T21:27:04.705Z,10.35
2023-04-06T21:29:50.935Z,10.72
2023-04-06T21:32:37.616Z,10.91
2023-04-06T21:35:23.706Z,10.85
2023-04-06T21:38:10.884Z,10.43
2023-04-06T21:40:57.033Z,10.56
2023-04-06T21:43:44.830Z,10.32
2023-04-06T21:46:31.320Z,10.67
2023-04-06T21:49:17.620Z,10.70
2023-04-06T21:52:04.386Z,10.91
2023-04-06T21:54:50.628Z,10.49
2023-04-06T21:57:37.093Z,10.54
2023-04-06T22:00:24.802Z,10.28
2023-04-06T22:03:11.530Z,10.21
2023-04-06T22:05:57.740Z,10.25
2023-04-06T22:08:47.485Z,10.47
2023-04-06T22:11:33.740Z,10.58
2023-04-06T22:14:20.450Z,10.70
2023-04-06T22:17:08.209Z,10.52
2023-04-06T22:19:54.351Z,10.56
2023-04-06T22:22:40.552Z,10.43
2023-04-06T22:25:26.954Z,10.52
2023-04-06T22:28:13.285Z,10.61
2023-04-06T22:30:59.472Z,10.68
2023-04-06T22:33:47.121Z,10.66
2023-04-06T22:36:33.597Z,10.67
2023-04-06T22:39:19.899Z,10.53
2023-04-06T22:42:06.431Z,10.35
2023-04-06T22:44:52.845Z,10.37
2023-04-06T22:47:39.244Z,10.55
2023-04-06T22:50:27.060Z,10.68
2023-04-06T22:53:13.150Z,10.54
2023-04-06T22:55:59.756Z,10.82
2023-04-06T22:58:46.127Z,10.92
2023-04-06T23:01:32.367Z,10.83
2023-04-06T23:04:18.841Z,10.65
2023-04-06T23:07:07.400Z,11.04
2023-04-06T23:09:53.438Z,10.95
2023-04-06T23:12:39.799Z,10.96
2023-04-06T23:15:26.625Z,11.15
2023-04-06T23:18:12.821Z,11.06
2023-04-06T23:20:58.919Z,10.96
2023-04-06T23:23:46.722Z,10.89
2023-04-06T23:26:32.939Z,10.79
2023-04-06T23:29:19.065Z,10.55
2023-04-06T23:32:05.417Z,10.66
2023-04-06T23:34:51.753Z,10.71
2023-04-06T23:37:38.024Z,10.84
2023-04-06T23:40:25.859Z,10.52
2023-04-06T23:43:12.642Z,10.57
2023-04-06T23:45:58.704Z,10.88
2023-04-06T23:48:44.919Z,11.08
2023-04-06T23:51:31.790Z,10.80
2023-04-06T23:54:18.225Z,10.84
2023-04-06T23:57:05.820Z,10.66
2023-04-06T23:59:52.084Z,10.35
